Time;durP1;ratioP1;P1;durP2;ratioP2;P2;SDS_P1;SDS_P2;PMS_P1;PMS_P2;Temp;Humidity;BMP_temperature;BMP_pressure;BME280_temperature;BME280_humidity;BME280_pressure;Samples;Min_cycle;Max_cycle;Signal;HPM_P1;HPM_P2
2022/10/03 00:01:31;;;;;;;;;;;358.50;2329.60;;;;;;5090810;28;19915;-60
2022/10/03 00:04:06;;;;;;;;;;;358.50;2329.60;;;;;;5090786;28;19913;-69
2022/10/03 00:06:31;;;;;;;;;;;358.40;2329.60;;;;;;5090557;28;19924;-61
2022/10/03 00:09:15;;;;;;;;;;;358.40;2329.60;;;;;;5090977;28;20327;-69
2022/10/03 00:11:59;;;;;;;;;;;333.70;2329.60;;;;;;5090474;28;19916;-60
2022/10/03 00:14:31;;;;;;;;;;;333.70;2329.60;;;;;;5091034;28;19908;-60
2022/10/03 00:17:05;;;;;;;;;;;358.50;2329.60;;;;;;5090967;28;20007;-66
2022/10/03 00:19:31;;;;;;;;;;;358.50;2329.60;;;;;;5090364;28;19908;-60
2022/10/03 00:22:17;;;;;;;;;;;358.50;2329.60;;;;;;5090811;28;19912;-68
2022/10/03 00:24:48;;;;;;;;;;;358.60;2329.60;;;;;;5090838;28;19947;-68
2022/10/03 00:27:14;;;;;;;;;;;358.70;2329.60;;;;;;5090755;28;19908;-67
2022/10/03 00:29:42;;;;;;;;;;;358.70;2329.60;;;;;;5094050;28;20326;-61
2022/10/03 00:32:40;;;;;;;;;;;358.80;2329.60;;;;;;5094630;28;19912;-60
2022/10/03 00:35:06;;;;;;;;;;;358.90;2329.60;;;;;;5072191;28;20012;-65
2022/10/03 00:37:35;;;;;;;;;;;359.10;2329.60;;;;;;5072051;28;19909;-69
2022/10/03 00:40:00;;;;;;;;;;;359.10;2329.60;;;;;;5071938;28;19908;-67
2022/10/03 00:42:39;;;;;;;;;;;359.20;2329.60;;;;;;5072267;28;19950;-68
2022/10/03 00:45:22;;;;;;;;;;;359.20;2329.60;;;;;;5072181;28;20378;-61
2022/10/03 00:47:48;;;;;;;;;;;359.30;2329.60;;;;;;5071840;28;20007;-61
2022/10/03 00:50:32;;;;;;;;;;;384.00;2329.60;;;;;;5071918;28;20015;-60
2022/10/03 00:52:58;;;;;;;;;;;384.00;2329.60;;;;;;5071684;28;19924;-63
2022/10/03 00:55:34;;;;;;;;;;;359.30;2329.60;;;;;;5071885;28;19908;-61
2022/10/03 00:58:09;;;;;;;;;;;358.90;2329.60;;;;;;5071561;28;19948;-61
2022/10/03 01:00:35;;;;;;;;;;;359.00;2329.60;;;;;;5071820;28;19908;-68
2022/10/03 01:03:19;;;;;;;;;;;359.10;2329.60;;;;;;5071265;28;19916;-61
2022/10/03 01:06:03;;;;;;;;;;;359.10;2329.60;;;;;;5071312;28;20019;-67
2022/10/03 01:08:31;;;;;;;;;;;359.20;2329.60;;;;;;5071341;28;19913;-67
2022/10/03 01:11:08;;;;;;;;;;;359.10;2329.60;;;;;;5078298;28;19965;-68
2022/10/03 01:13:33;;;;;;;;;;;359.20;2329.60;;;;;;5094012;28;19912;-68
2022/10/03 01:16:36;;;;;;;;;;;359.30;2329.60;;;;;;5093731;28;19915;-67
2022/10/03 01:19:20;;;;;;;;;;;359.30;2329.60;;;;;;5070959;28;19943;-67
2022/10/03 01:22:08;;;;;;;;;;;384.00;2329.60;;;;;;5092074;28;19958;-67
2022/10/03 01:24:34;;;;;;;;;;;384.00;2329.60;;;;;;5093553;28;19947;-67
2022/10/03 01:27:06;;;;;;;;;;;384.10;2329.60;;;;;;5093524;28;20274;-61
2022/10/03 01:32:39;;;;;;;;;;;384.30;2329.60;;;;;;5093815;28;19967;-67
2022/10/03 01:35:05;;;;;;;;;;;384.30;2329.60;;;;;;5093373;28;20003;-61
2022/10/03 01:37:36;;;;;;;;;;;384.30;2329.60;;;;;;5093400;28;19912;-69
2022/10/03 01:40:10;;;;;;;;;;;384.30;2329.60;;;;;;5092281;28;19952;-61
2022/10/03 01:42:48;;;;;;;;;;;384.30;2329.60;;;;;;5092382;28;20370;-68
2022/10/03 01:45:14;;;;;;;;;;;384.30;2329.60;;;;;;5093434;28;20014;-69
2022/10/03 01:47:50;;;;;;;;;;;384.40;2329.60;;;;;;5093217;28;19944;-66
2022/10/03 01:50:43;;;;;;;;;;;384.40;2329.60;;;;;;5093286;28;19916;-60
2022/10/03 01:53:27;;;;;;;;;;;384.40;2329.60;;;;;;5092986;28;19977;-61
2022/10/03 01:56:04;;;;;;;;;;;384.30;2329.60;;;;;;5093348;28;19908;-60
2022/10/03 01:58:35;;;;;;;;;;;384.30;2329.60;;;;;;5092949;28;19908;-68
2022/10/03 02:01:23;;;;;;;;;;;384.30;2329.60;;;;;;5093000;28;19912;-61
2022/10/03 02:03:54;;;;;;;;;;;384.30;2329.60;;;;;;5092608;28;20331;-61
2022/10/03 02:06:31;;;;;;;;;;;384.30;2329.60;;;;;;5092368;28;20282;-62
2022/10/03 02:08:56;;;;;;;;;;;384.30;2329.60;;;;;;5093034;28;19938;-69
2022/10/03 02:11:37;;;;;;;;;;;384.30;2329.60;;;;;;5092481;28;20366;-64
2022/10/03 02:14:22;;;;;;;;;;;384.40;2329.60;;;;;;5092890;28;19914;-68
2022/10/03 02:17:06;;;;;;;;;;;384.40;2329.60;;;;;;5092735;28;19912;-60
2022/10/03 02:20:06;;;;;;;;;;;384.40;2329.60;;;;;;5092585;28;19939;-70
2022/10/03 02:22:34;;;;;;;;;;;384.30;2329.60;;;;;;5080666;28;19993;-60
2022/10/03 02:25:13;;;;;;;;;;;384.30;2329.60;;;;;;5092393;28;19999;-60
2022/10/03 02:27:57;;;;;;;;;;;384.40;2329.60;;;;;;5092447;28;19919;-61
2022/10/03 02:30:55;;;;;;;;;;;384.40;2329.60;;;;;;5092743;28;19916;-60
2022/10/03 02:33:33;;;;;;;;;;;384.40;2329.60;;;;;;5069489;28;20011;-59
2022/10/03 02:36:17;;;;;;;;;;;384.40;2329.60;;;;;;5069600;28;19958;-66
2022/10/03 02:38:58;;;;;;;;;;;384.30;2329.60;;;;;;5069828;28;19908;-61
2022/10/03 02:41:42;;;;;;;;;;;384.30;2329.60;;;;;;5069986;28;19915;-60
2022/10/03 02:44:22;;;;;;;;;;;384.20;2329.60;;;;;;5069493;28;19913;-60
2022/10/03 02:47:08;;;;;;;;;;;384.30;2329.60;;;;;;5069635;28;20354;-63
2022/10/03 02:49:46;;;;;;;;;;;384.10;2329.60;;;;;;5068820;28;19908;-69
2022/10/03 02:52:12;;;;;;;;;;;384.10;2329.60;;;;;;5069338;28;19913;-68
2022/10/03 02:54:44;;;;;;;;;;;384.10;2329.60;;;;;;5069261;28;20382;-61
2022/10/03 02:57:09;;;;;;;;;;;359.30;2329.60;;;;;;5069040;28;19909;-68
2022/10/03 02:59:39;;;;;;;;;;;359.30;2329.60;;;;;;5069526;28;19919;-68
2022/10/03 03:02:13;;;;;;;;;;;384.00;2329.60;;;;;;5069256;28;19924;-62
2022/10/03 03:04:41;;;;;;;;;;;359.30;2329.60;;;;;;5068554;28;19913;-61
2022/10/03 03:07:09;;;;;;;;;;;359.20;2329.60;;;;;;5069051;28;20018;-60
2022/10/03 03:09:54;;;;;;;;;;;359.10;2329.60;;;;;;5086481;28;20356;-68
2022/10/03 03:12:19;;;;;;;;;;;359.10;2329.60;;;;;;5091365;28;19912;-67
2022/10/03 03:15:00;;;;;;;;;;;359.20;2329.60;;;;;;5091750;28;19954;-61
2022/10/03 03:17:36;;;;;;;;;;;359.20;2329.60;;;;;;5091675;28;19909;-63
2022/10/03 03:20:01;;;;;;;;;;;359.30;2329.60;;;;;;5091107;28;20006;-61
2022/10/03 03:22:33;;;;;;;;;;;384.00;2329.60;;;;;;5091433;28;19944;-61
2022/10/03 03:25:18;;;;;;;;;;;384.00;2329.60;;;;;;5091218;28;19908;-61
2022/10/03 03:27:43;;;;;;;;;;;384.00;2329.60;;;;;;5091273;28;19909;-61
2022/10/03 03:30:12;;;;;;;;;;;359.30;2329.60;;;;;;5091000;28;19916;-61
2022/10/03 03:32:55;;;;;;;;;;;359.30;2329.60;;;;;;5090751;28;20270;-61
2022/10/03 03:35:26;;;;;;;;;;;359.30;2329.60;;;;;;5091021;28;19918;-60
2022/10/03 03:38:03;;;;;;;;;;;359.30;2329.60;;;;;;5090916;28;19954;-61
2022/10/03 03:40:41;;;;;;;;;;;359.30;2329.60;;;;;;5090811;28;19947;-69
2022/10/03 03:43:09;;;;;;;;;;;384.00;2329.60;;;;;;5090988;28;19908;-61
2022/10/03 03:45:44;;;;;;;;;;;359.20;2329.60;;;;;;5091035;28;19908;-61
2022/10/03 03:48:21;;;;;;;;;;;359.20;2329.60;;;;;;5090712;28;20350;-65
2022/10/03 03:50:51;;;;;;;;;;;359.20;2329.60;;;;;;5090838;28;19923;-66
2022/10/03 03:53:35;;;;;;;;;;;359.20;2329.60;;;;;;5090871;28;19941;-65
2022/10/03 03:56:14;;;;;;;;;;;359.20;2329.60;;;;;;5090627;28;19908;-65
2022/10/03 03:58:46;;;;;;;;;;;359.20;2329.60;;;;;;5090526;28;19963;-64
2022/10/03 04:01:30;;;;;;;;;;;359.20;2329.60;;;;;;5090647;28;19961;-68
2022/10/03 04:04:20;;;;;;;;;;;359.20;2329.60;;;;;;5090494;28;19919;-68
2022/10/03 04:06:50;;;;;;;;;;;359.10;2329.60;;;;;;5090846;28;19924;-61
2022/10/03 04:09:34;;;;;;;;;;;359.10;2329.60;;;;;;5090752;28;19912;-60
2022/10/03 04:12:08;;;;;;;;;;;359.10;2329.60;;;;;;5090646;28;20010;-61
2022/10/03 04:14:52;;;;;;;;;;;359.10;2329.60;;;;;;5090815;28;20338;-65
2022/10/03 04:20:17;;;;;;;;;;;359.30;2329.60;;;;;;5090570;28;20269;-61
2022/10/03 04:23:01;;;;;;;;;;;359.30;2329.60;;;;;;5090642;28;20383;-62
2022/10/03 04:25:33;;;;;;;;;;;359.20;2329.60;;;;;;5090747;28;20007;-60
2022/10/03 04:28:09;;;;;;;;;;;359.20;2329.60;;;;;;5090420;28;19912;-62
2022/10/03 04:30:47;;;;;;;;;;;359.20;2329.60;;;;;;5090494;28;19916;-60
2022/10/03 04:33:38;;;;;;;;;;;359.20;2329.60;;;;;;5090272;28;20393;-68
2022/10/03 04:36:22;;;;;;;;;;;359.10;2329.60;;;;;;5090821;28;19919;-69
2022/10/03 04:38:56;;;;;;;;;;;359.00;2329.60;;;;;;5090477;28;19916;-62
2022/10/03 04:41:26;;;;;;;;;;;359.10;2329.60;;;;;;5090174;28;19970;-60
2022/10/03 04:43:52;;;;;;;;;;;359.00;2329.60;;;;;;5090367;28;19908;-69
2022/10/03 04:46:41;;;;;;;;;;;358.90;2329.60;;;;;;5090240;28;20263;-60
2022/10/03 04:49:17;;;;;;;;;;;359.00;2329.60;;;;;;5067930;28;19962;-60
2022/10/03 04:51:45;;;;;;;;;;;359.00;2329.60;;;;;;5050982;28;20384;-61
2022/10/03 04:54:15;;;;;;;;;;;359.00;2329.60;;;;;;5067670;28;20312;-59
2022/10/03 04:56:47;;;;;;;;;;;358.90;2329.60;;;;;;5067747;28;20346;-60
2022/10/03 04:59:33;;;;;;;;;;;358.90;2329.60;;;;;;5067881;28;19909;-60
2022/10/03 05:02:01;;;;;;;;;;;359.00;2329.60;;;;;;5067748;28;19964;-61
2022/10/03 05:04:33;;;;;;;;;;;359.10;2329.60;;;;;;5067833;28;20581;-67
2022/10/03 05:07:17;;;;;;;;;;;359.00;2329.60;;;;;;5067484;28;19929;-62
2022/10/03 05:10:03;;;;;;;;;;;359.10;2329.60;;;;;;5067524;28;19932;-61
2022/10/03 05:12:44;;;;;;;;;;;359.20;2329.60;;;;;;5067666;28;20401;-67
2022/10/03 05:15:09;;;;;;;;;;;359.20;2329.60;;;;;;5068480;28;19909;-61
2022/10/03 05:17:42;;;;;;;;;;;359.30;2329.60;;;;;;5071487;28;20401;-69
2022/10/03 05:20:26;;;;;;;;;;;384.10;2329.60;;;;;;5071425;28;20447;-69
2022/10/03 05:22:51;;;;;;;;;;;384.20;2329.60;;;;;;5071139;28;19909;-68
2022/10/03 05:25:20;;;;;;;;;;;384.10;2329.60;;;;;;5071750;28;19935;-69
2022/10/03 05:28:12;;;;;;;;;;;384.20;2329.60;;;;;;5073534;28;19915;-65
2022/10/03 05:30:43;;;;;;;;;;;384.00;2329.60;;;;;;5085338;28;20302;-63
2022/10/03 05:33:29;;;;;;;;;;;384.00;2329.60;;;;;;5073298;28;19912;-67
2022/10/03 05:36:02;;;;;;;;;;;384.00;2329.60;;;;;;5073413;28;19916;-67
2022/10/03 05:38:27;;;;;;;;;;;384.00;2329.60;;;;;;5073468;28;19909;-67
2022/10/03 05:41:01;;;;;;;;;;;384.00;2329.60;;;;;;5073311;28;20285;-61
2022/10/03 05:43:35;;;;;;;;;;;384.10;2329.60;;;;;;5073479;28;19909;-69
2022/10/03 05:46:13;;;;;;;;;;;384.00;2329.60;;;;;;5072949;28;19962;-68
2022/10/03 05:48:48;;;;;;;;;;;384.00;2329.60;;;;;;5072870;28;20385;-68
2022/10/03 05:51:16;;;;;;;;;;;384.00;2329.60;;;;;;5072877;28;19916;-62
2022/10/03 05:53:48;;;;;;;;;;;384.00;2329.60;;;;;;5072890;28;19908;-68
2022/10/03 05:56:16;;;;;;;;;;;384.10;2329.60;;;;;;5072938;28;19908;-61
2022/10/03 05:58:41;;;;;;;;;;;384.10;2329.60;;;;;;5072680;28;19916;-67
2022/10/03 06:01:07;;;;;;;;;;;384.00;2329.60;;;;;;5072541;28;19916;-61
2022/10/03 06:03:39;;;;;;;;;;;384.00;2329.60;;;;;;5072792;28;19912;-68
2022/10/03 06:06:10;;;;;;;;;;;384.10;2329.60;;;;;;5072523;28;19985;-61
2022/10/03 06:08:45;;;;;;;;;;;384.30;2329.60;;;;;;5072710;28;19915;-67
2022/10/03 06:11:10;;;;;;;;;;;384.40;2329.60;;;;;;5072416;28;19916;-62
2022/10/03 06:13:42;;;;;;;;;;;384.40;2329.60;;;;;;5072495;28;20000;-67
2022/10/03 06:16:13;;;;;;;;;;;384.40;2329.60;;;;;;5072427;28;19941;-61
2022/10/03 06:18:55;;;;;;;;;;;384.50;2329.60;;;;;;5072182;28;20417;-61
2022/10/03 06:21:36;;;;;;;;;;;384.60;2329.60;;;;;;5071855;28;19909;-61
2022/10/03 06:24:04;;;;;;;;;;;384.60;2329.60;;;;;;5072334;28;19915;-61
2022/10/03 06:26:48;;;;;;;;;;;384.60;2329.60;;;;;;5071799;28;19955;-68
2022/10/03 06:29:32;;;;;;;;;;;384.70;2329.60;;;;;;5072236;28;19908;-66
2022/10/03 06:32:17;;;;;;;;;;;384.70;2329.60;;;;;;5072277;28;19974;-63
2022/10/03 06:34:59;;;;;;;;;;;384.90;2329.60;;;;;;5071924;28;20041;-62
2022/10/03 06:37:43;;;;;;;;;;;409.60;2355.20;;;;;;5072137;28;19913;-63
2022/10/03 06:40:27;;;;;;;;;;;409.90;2355.20;;;;;;5072084;28;20011;-61
2022/10/03 06:42:52;;;;;;;;;;;409.90;2355.20;;;;;;5072303;28;19954;-61
2022/10/03 06:45:36;;;;;;;;;;;410.20;2355.20;;;;;;5071895;28;19916;-61
2022/10/03 06:48:20;;;;;;;;;;;486.90;2380.80;;;;;;5071813;28;19915;-60
2022/10/03 06:50:46;;;;;;;;;;;563.20;2432.00;;;;;;5072088;28;19963;-65
2022/10/03 06:53:14;;;;;;;;;;;589.20;2432.00;;;;;;5071850;28;19908;-65
2022/10/03 06:55:55;;;;;;;;;;;615.30;2201.60;;;;;;5071807;28;19909;-65
2022/10/03 06:58:39;;;;;;;;;;;666.00;2022.40;;;;;;5071526;28;19991;-62
2022/10/03 07:01:11;;;;;;;;;;;691.60;1894.40;;;;;;5071788;28;20271;-65
2022/10/03 07:03:59;;;;;;;;;;;717.30;1792.00;;;;;;5071709;28;19919;-65
2022/10/03 07:06:36;;;;;;;;;;;691.80;1792.00;;;;;;5071627;28;19947;-64
2022/10/03 07:09:02;;;;;;;;;;;716.90;1792.00;;;;;;5071258;28;20374;-64
2022/10/03 07:11:41;;;;;;;;;;;768.10;1664.00;;;;;;5071152;28;19982;-61
2022/10/03 07:14:16;;;;;;;;;;;768.40;1587.20;;;;;;5082350;28;19920;-65
2022/10/03 07:16:57;;;;;;;;;;;768.50;1587.20;;;;;;5091455;28;19915;-64
2022/10/03 07:19:25;;;;;;;;;;;768.40;1587.20;;;;;;5091735;28;19940;-64
2022/10/03 07:22:09;;;;;;;;;;;768.30;1561.60;;;;;;5091331;28;19908;-63
2022/10/03 07:24:44;;;;;;;;;;;768.10;1587.20;;;;;;5091676;28;20016;-65
2022/10/03 07:27:28;;;;;;;;;;;768.20;1561.60;;;;;;5091311;28;19915;-63
2022/10/03 07:30:03;;;;;;;;;;;691.90;1664.00;;;;;;5091562;28;19915;-64
2022/10/03 07:32:28;;;;;;;;;;;640.90;1766.40;;;;;;5091285;28;19934;-65
2022/10/03 07:35:12;;;;;;;;;;;615.30;1843.20;;;;;;5091268;28;20369;-63
2022/10/03 07:40:35;;;;;;;;;;;589.10;2022.40;;;;;;5091303;28;19994;-62
2022/10/03 07:43:14;;;;;;;;;;;563.80;2073.60;;;;;;5091067;28;19912;-59
2022/10/03 07:45:40;;;;;;;;;;;563.60;2099.20;;;;;;5091232;28;19908;-63
2022/10/03 07:48:21;;;;;;;;;;;563.50;2124.80;;;;;;5091297;28;20438;-63
2022/10/03 07:51:06;;;;;;;;;;;563.20;2176.00;;;;;;5091133;28;19966;-65
2022/10/03 07:53:50;;;;;;;;;;;537.70;2201.60;;;;;;5090926;28;20366;-58
2022/10/03 07:56:26;;;;;;;;;;;537.60;2278.40;;;;;;5091169;28;19930;-64
2022/10/03 07:59:03;;;;;;;;;;;588.90;2150.40;;;;;;5090872;28;19914;-64
2022/10/03 08:01:34;;;;;;;;;;;563.60;2176.00;;;;;;5090812;28;19912;-60
2022/10/03 08:04:00;;;;;;;;;;;537.60;2252.80;;;;;;5090759;28;19920;-63
2022/10/03 08:06:35;;;;;;;;;;;537.60;2252.80;;;;;;5090876;28;20014;-58
2022/10/03 08:09:19;;;;;;;;;;;563.40;2176.00;;;;;;5090450;28;19915;-59
2022/10/03 08:11:50;;;;;;;;;;;589.60;1996.80;;;;;;5090677;28;20278;-64
2022/10/03 08:14:36;;;;;;;;;;;614.70;1996.80;;;;;;5090718;28;19908;-61
2022/10/03 08:17:01;;;;;;;;;;;666.30;1817.60;;;;;;5090135;28;19914;-62
2022/10/03 08:19:36;;;;;;;;;;;614.80;1920.00;;;;;;5090301;28;20328;-59
2022/10/03 08:22:20;;;;;;;;;;;589.70;1971.20;;;;;;5090420;28;19915;-60
2022/10/03 08:25:09;;;;;;;;;;;589.20;1996.80;;;;;;5090471;28;20378;-63
2022/10/03 08:27:53;;;;;;;;;;;614.80;1920.00;;;;;;5068272;28;19951;-58
2022/10/03 08:30:21;;;;;;;;;;;589.70;1971.20;;;;;;5067878;28;19913;-59
2022/10/03 08:32:47;;;;;;;;;;;588.90;1996.80;;;;;;5068140;28;19938;-65
2022/10/03 08:35:21;;;;;;;;;;;563.80;2048.00;;;;;;5067962;28;19919;-63
2022/10/03 08:38:09;;;;;;;;;;;589.10;1996.80;;;;;;5068150;28;20390;-63
2022/10/03 08:40:37;;;;;;;;;;;564.00;2048.00;;;;;;5068500;28;19908;-63
2022/10/03 08:43:21;;;;;;;;;;;563.60;2099.20;;;;;;5068400;28;19909;-63
2022/10/03 08:46:05;;;;;;;;;;;538.30;2150.40;;;;;;5068125;28;19954;-58
2022/10/03 08:48:48;;;;;;;;;;;512.90;2176.00;;;;;;5067715;28;19912;-62
2022/10/03 08:51:29;;;;;;;;;;;512.40;2124.80;;;;;;5071809;28;20011;-59
2022/10/03 08:54:06;;;;;;;;;;;563.50;2048.00;;;;;;5071934;28;19944;-61
2022/10/03 08:56:50;;;;;;;;;;;614.40;1920.00;;;;;;5071880;28;20366;-61
2022/10/03 08:59:29;;;;;;;;;;;589.70;1894.40;;;;;;5071474;28;20007;-60
2022/10/03 09:01:55;;;;;;;;;;;614.50;1920.00;;;;;;5071258;28;20348;-63
2022/10/03 09:04:21;;;;;;;;;;;589.20;1945.60;;;;;;5078405;28;20561;-64
2022/10/03 09:07:10;;;;;;;;;;;564.10;1971.20;;;;;;5097399;28;19931;-60
2022/10/03 09:09:39;;;;;;;;;;;563.50;1996.80;;;;;;5092543;28;19912;-63
2022/10/03 09:12:13;;;;;;;;;;;563.30;2022.40;;;;;;5098009;28;20278;-60
2022/10/03 09:14:46;;;;;;;;;;;563.20;2022.40;;;;;;5093532;28;19941;-60
2022/10/03 09:17:26;;;;;;;;;;;538.30;2048.00;;;;;;5098654;28;19958;-63
2022/10/03 09:19:55;;;;;;;;;;;538.10;2073.60;;;;;;5102610;28;19916;-64
2022/10/03 09:22:30;;;;;;;;;;;538.50;2099.20;;;;;;5103545;28;19951;-60
2022/10/03 09:24:56;;;;;;;;;;;563.20;2073.60;;;;;;5098411;28;19912;-64
2022/10/03 09:27:26;;;;;;;;;;;538.50;2048.00;;;;;;5092290;28;19914;-60
2022/10/03 09:30:04;;;;;;;;;;;537.60;2073.60;;;;;;5091975;28;19948;-64
2022/10/03 09:32:30;;;;;;;;;;;512.70;2073.60;;;;;;5091988;28;19962;-61
2022/10/03 09:34:55;;;;;;;;;;;512.60;2022.40;;;;;;5092307;28;20366;-63
2022/10/03 09:37:32;;;;;;;;;;;512.30;2048.00;;;;;;5091963;28;19951;-65
2022/10/03 09:40:16;;;;;;;;;;;537.70;2048.00;;;;;;5089814;28;20136;-61
2022/10/03 09:42:42;;;;;;;;;;;538.00;1996.80;;;;;;5091269;28;19912;-61
2022/10/03 09:45:20;;;;;;;;;;;512.90;2022.40;;;;;;5093167;28;19918;-61
2022/10/03 09:48:04;;;;;;;;;;;512.60;2073.60;;;;;;5093414;28;20350;-62
2022/10/03 09:50:38;;;;;;;;;;;512.60;2099.20;;;;;;5093064;28;20022;-62
2022/10/03 09:53:26;;;;;;;;;;;537.60;2073.60;;;;;;5093294;28;19909;-63
2022/10/03 09:56:11;;;;;;;;;;;537.70;2048.00;;;;;;5093132;28;19916;-62
2022/10/03 09:58:45;;;;;;;;;;;538.00;2048.00;;;;;;5093264;28;20002;-61
2022/10/03 10:01:13;;;;;;;;;;;538.00;2048.00;;;;;;5092141;28;19953;-63
2022/10/03 10:03:45;;;;;;;;;;;537.60;2048.00;;;;;;5092979;28;19916;-63
2022/10/03 10:06:13;;;;;;;;;;;537.90;2022.40;;;;;;5092742;28;19924;-64
2022/10/03 10:08:44;;;;;;;;;;;512.80;2048.00;;;;;;5093073;28;20002;-63
2022/10/03 10:11:28;;;;;;;;;;;537.60;2073.60;;;;;;5092834;28;20400;-61
2022/10/03 10:13:56;;;;;;;;;;;537.90;2048.00;;;;;;5093009;28;19908;-63
2022/10/03 10:16:40;;;;;;;;;;;537.90;2048.00;;;;;;5092630;28;19908;-63
2022/10/03 10:19:21;;;;;;;;;;;537.90;2048.00;;;;;;5092867;28;19981;-64
2022/10/03 10:21:58;;;;;;;;;;;512.90;2073.60;;;;;;5092728;28;20353;-64
2022/10/03 10:24:45;;;;;;;;;;;512.90;2073.60;;;;;;5092710;28;19916;-63
2022/10/03 10:27:29;;;;;;;;;;;537.60;2073.60;;;;;;5092705;28;19916;-63
2022/10/03 10:30:13;;;;;;;;;;;537.60;2073.60;;;;;;5072659;28;20286;-63
2022/10/03 10:33:03;;;;;;;;;;;512.90;2073.60;;;;;;5071812;28;19947;-62
2022/10/03 10:35:29;;;;;;;;;;;537.60;2124.80;;;;;;5072225;28;19920;-62
2022/10/03 10:37:57;;;;;;;;;;;537.60;2124.80;;;;;;5072335;28;19909;-62
2022/10/03 10:40:41;;;;;;;;;;;537.70;2124.80;;;;;;5072263;28;20011;-63
2022/10/03 10:43:16;;;;;;;;;;;538.00;2150.40;;;;;;5072067;28;19908;-63
2022/10/03 10:45:48;;;;;;;;;;;538.10;2022.40;;;;;;5072044;28;19951;-62
2022/10/03 10:48:28;;;;;;;;;;;538.30;2073.60;;;;;;5072285;28;19908;-63
2022/10/03 10:50:54;;;;;;;;;;;563.40;1996.80;;;;;;5071972;28;19917;-64
2022/10/03 10:53:39;;;;;;;;;;;563.50;1996.80;;;;;;5071662;28;19908;-63
2022/10/03 10:56:30;;;;;;;;;;;563.20;1945.60;;;;;;5071747;28;19908;-63
2022/10/03 10:59:11;;;;;;;;;;;563.20;1945.60;;;;;;5029691;28;20403;-61
2022/10/03 11:01:39;;;;;;;;;;;563.20;1920.00;;;;;;5029615;28;20264;-61
2022/10/03 11:04:18;;;;;;;;;;;538.50;1920.00;;;;;;5029493;28;19920;-64
2022/10/03 11:07:01;;;;;;;;;;;538.30;1971.20;;;;;;5029271;28;19932;-64
2022/10/03 11:09:27;;;;;;;;;;;538.50;1920.00;;;;;;5029573;28;20418;-64
2022/10/03 11:11:52;;;;;;;;;;;538.50;1971.20;;;;;;5029145;28;19921;-60
2022/10/03 11:14:27;;;;;;;;;;;563.20;1945.60;;;;;;5028438;28;19917;-62
2022/10/03 11:17:18;;;;;;;;;;;563.50;1996.80;;;;;;5029145;28;21622;-63
2022/10/03 11:20:12;;;;;;;;;;;563.30;1945.60;;;;;;5006845;28;20051;-64
2022/10/03 11:22:38;;;;;;;;;;;563.20;1945.60;;;;;;5026058;28;19910;-62
2022/10/03 11:25:06;;;;;;;;;;;563.30;1920.00;;;;;;5027450;28;19909;-63
2022/10/03 11:27:32;;;;;;;;;;;538.40;1894.40;;;;;;5026986;28;19909;-65
2022/10/03 11:30:16;;;;;;;;;;;537.80;1945.60;;;;;;5029571;28;20347;-64
2022/10/03 11:32:41;;;;;;;;;;;537.60;1971.20;;;;;;5026906;28;19913;-63
2022/10/03 11:35:25;;;;;;;;;;;537.70;1971.20;;;;;;5037324;28;20015;-60
2022/10/03 11:38:06;;;;;;;;;;;538.00;2022.40;;;;;;5069141;28;20496;-60
2022/10/03 11:40:41;;;;;;;;;;;537.80;2022.40;;;;;;5069422;28;19915;-64
2022/10/03 11:43:25;;;;;;;;;;;537.80;1996.80;;;;;;5069281;28;19956;-64
2022/10/03 11:45:55;;;;;;;;;;;512.90;1971.20;;;;;;5069202;28;19967;-63
2022/10/03 11:48:39;;;;;;;;;;;512.60;1971.20;;;;;;5068552;28;19914;-62
2022/10/03 11:51:07;;;;;;;;;;;512.50;1945.60;;;;;;5068991;28;20007;-65
2022/10/03 11:53:33;;;;;;;;;;;537.60;1945.60;;;;;;5068956;28;19909;-64
2022/10/03 11:56:08;;;;;;;;;;;537.60;1894.40;;;;;;5068797;28;19919;-65
2022/10/03 11:58:52;;;;;;;;;;;512.90;1894.40;;;;;;5069142;28;19919;-61
2022/10/03 12:01:27;;;;;;;;;;;512.60;1868.80;;;;;;5068642;28;19958;-60
2022/10/03 12:03:59;;;;;;;;;;;512.60;1843.20;;;;;;5068959;28;19920;-65
2022/10/03 12:09:37;;;;;;;;;;;512.60;1843.20;;;;;;5068339;28;19970;-61
2022/10/03 12:12:05;;;;;;;;;;;512.00;1894.40;;;;;;5068795;28;19920;-62
2022/10/03 12:14:35;;;;;;;;;;;487.30;1920.00;;;;;;5068340;28;20374;-62
2022/10/03 12:17:01;;;;;;;;;;;487.00;1945.60;;;;;;5068648;28;19912;-61
2022/10/03 12:19:29;;;;;;;;;;;486.80;1971.20;;;;;;5068785;28;20579;-61
2022/10/03 12:21:58;;;;;;;;;;;486.90;1971.20;;;;;;5068581;28;19912;-63
2022/10/03 12:24:26;;;;;;;;;;;487.00;1971.20;;;;;;5068376;28;19912;-60
2022/10/03 12:27:08;;;;;;;;;;;487.00;1971.20;;;;;;5068311;28;19919;-64
2022/10/03 12:29:37;;;;;;;;;;;486.80;1971.20;;;;;;5068663;28;19920;-62
2022/10/03 12:32:10;;;;;;;;;;;486.70;1996.80;;;;;;5068690;28;20450;-63
2022/10/03 12:34:39;;;;;;;;;;;486.70;2022.40;;;;;;5068508;28;19969;-64
2022/10/03 12:37:14;;;;;;;;;;;486.70;2022.40;;;;;;5068738;28;20471;-61
2022/10/03 12:39:56;;;;;;;;;;;486.70;2022.40;;;;;;5068260;28;20274;-64
2022/10/03 12:42:36;;;;;;;;;;;486.70;2048.00;;;;;;5068589;28;20282;-61
2022/10/03 12:45:11;;;;;;;;;;;487.00;2022.40;;;;;;5068388;28;19984;-62
2022/10/03 12:47:36;;;;;;;;;;;487.00;2048.00;;;;;;5068510;28;19912;-63
2022/10/03 12:50:14;;;;;;;;;;;487.00;2048.00;;;;;;5068284;28;19915;-62
2022/10/03 12:52:48;;;;;;;;;;;486.70;2099.20;;;;;;5068159;28;20386;-62
2022/10/03 12:55:30;;;;;;;;;;;486.80;2048.00;;;;;;5068742;28;19920;-61
2022/10/03 12:57:55;;;;;;;;;;;487.20;2073.60;;;;;;5068519;28;19909;-62
2022/10/03 13:00:23;;;;;;;;;;;512.00;1971.20;;;;;;5068510;28;19912;-61
2022/10/03 13:02:57;;;;;;;;;;;512.60;1894.40;;;;;;5068237;28;19916;-61
2022/10/03 13:05:41;;;;;;;;;;;512.60;1894.40;;;;;;5067765;28;19925;-62
2022/10/03 13:08:06;;;;;;;;;;;512.90;1894.40;;;;;;5068416;28;20029;-62
2022/10/03 13:10:38;;;;;;;;;;;512.90;1894.40;;;;;;5068021;28;19917;-61
2022/10/03 13:13:14;;;;;;;;;;;512.60;1894.40;;;;;;5068763;28;19951;-64
2022/10/03 13:15:39;;;;;;;;;;;512.60;1945.60;;;;;;5068158;28;20047;-63
2022/10/03 13:18:11;;;;;;;;;;;512.50;1920.00;;;;;;5068631;28;20003;-65
2022/10/03 13:20:39;;;;;;;;;;;512.20;1920.00;;;;;;5068179;28;19908;-61
2022/10/03 13:23:11;;;;;;;;;;;487.30;1945.60;;;;;;5068202;28;19913;-62
2022/10/03 13:25:44;;;;;;;;;;;486.90;1971.20;;;;;;5068431;28;19961;-62
2022/10/03 13:28:14;;;;;;;;;;;487.00;1945.60;;;;;;5067989;28;19961;-62
2022/10/03 13:30:45;;;;;;;;;;;486.80;1971.20;;;;;;5067971;28;19963;-62
2022/10/03 13:33:10;;;;;;;;;;;486.70;1971.20;;;;;;5067626;28;19951;-61
2022/10/03 13:35:57;;;;;;;;;;;486.70;2022.40;;;;;;5068134;28;20334;-63
2022/10/03 13:38:23;;;;;;;;;;;486.80;2022.40;;;;;;5071545;28;20003;-61
2022/10/03 13:41:07;;;;;;;;;;;487.00;1996.80;;;;;;5071324;28;20408;-61
2022/10/03 13:43:35;;;;;;;;;;;487.10;2048.00;;;;;;5071631;28;19927;-61
2022/10/03 13:46:05;;;;;;;;;;;487.30;1971.20;;;;;;5071007;28;19909;-64
2022/10/03 13:48:33;;;;;;;;;;;512.30;1971.20;;;;;;5071502;28;20372;-63
2022/10/03 13:51:00;;;;;;;;;;;512.30;1971.20;;;;;;5071352;28;19916;-61
2022/10/03 13:53:29;;;;;;;;;;;512.30;1920.00;;;;;;5071513;28;19941;-59
2022/10/03 13:56:00;;;;;;;;;;;487.30;1945.60;;;;;;5071476;28;19909;-61
2022/10/03 13:58:25;;;;;;;;;;;487.10;1920.00;;;;;;5070960;28;19916;-62
2022/10/03 14:00:54;;;;;;;;;;;487.10;1945.60;;;;;;5071115;28;19912;-61
2022/10/03 14:03:23;;;;;;;;;;;487.00;1971.20;;;;;;5089780;28;19913;-61
2022/10/03 14:06:09;;;;;;;;;;;486.80;1971.20;;;;;;5091142;28;19924;-62
2022/10/03 14:08:43;;;;;;;;;;;461.70;2099.20;;;;;;5091354;28;19916;-61
2022/10/03 14:11:21;;;;;;;;;;;461.40;2150.40;;;;;;5090714;28;19925;-61
2022/10/03 14:14:05;;;;;;;;;;;461.30;2176.00;;;;;;5091341;28;19963;-61
2022/10/03 14:16:35;;;;;;;;;;;461.20;2227.20;;;;;;5091097;28;19915;-62
2022/10/03 14:19:19;;;;;;;;;;;461.10;2252.80;;;;;;5090883;28;19968;-62
2022/10/03 14:21:47;;;;;;;;;;;461.20;2304.00;;;;;;5090720;28;19976;-61
2022/10/03 14:24:33;;;;;;;;;;;461.30;2304.00;;;;;;5089440;28;19965;-59
2022/10/03 14:27:17;;;;;;;;;;;461.10;2304.00;;;;;;5088629;28;19923;-60
2022/10/03 14:29:45;;;;;;;;;;;461.20;2355.20;;;;;;5088781;28;19919;-62
2022/10/03 14:32:14;;;;;;;;;;;461.00;2380.80;;;;;;5089368;28;19924;-59
2022/10/03 14:34:39;;;;;;;;;;;460.80;2329.60;;;;;;5089238;28;19965;-63
2022/10/03 14:37:05;;;;;;;;;;;436.10;2278.40;;;;;;5086629;28;19920;-60
2022/10/03 14:39:42;;;;;;;;;;;435.90;2252.80;;;;;;5089374;28;19916;-61